IN-0029 weather

Lunglei Helipad
Mizoram, India

Public forecast

Using degrees Celsius for public forecast. Weather courtesy of forecast.io.

Closest aviation weather report (METAR) to Lunglei Helipad

Closest report is Lengpui Airport, 58.9 nm (109.1 km) N. Retrieved 2020/02/22 05:00 UTC (32 minutes ago):

VELP 220500Z 11003KT 5000 HZ BKN200 28/13 Q1021 NOSIG

Closest aviation forecast (TAF) to Lunglei Helipad

Closest forecast is Shah Amanat International Airport, 64.5 nm (119.4 km) SW. Retrieved 2020-02-22 00:42 UTC (5 hours ago):

TAF VGEG 212300Z 2200/2306 00000KT 2000 BR SCT015 BECMG 2204/2206 25005KT 3500 HZ NSC TEMPO 2220/2302 00000KT 2000 BR SCT015 BECMG 2303/2305 05005KT 3500 HZ NSC